Time;durP1;ratioP1;P1;durP2;ratioP2;P2;SDS_P1;SDS_P2;PMS_P1;PMS_P2;Temp;Humidity;BMP_temperature;BMP_pressure;BME280_temperature;BME280_humidity;BME280_pressure;Samples;Min_cycle;Max_cycle;Signal;HPM_P1;HPM_P2
2023/08/25 00:01:15;;;;;;;3.85;1.73;;;22.30;61.00;;;;;;5073162;28;20364;-57
2023/08/25 00:03:41;;;;;;;3.17;1.80;;;22.30;61.00;;;;;;5073038;28;20255;-57
2023/08/25 00:06:10;;;;;;;2.95;1.60;;;22.30;61.00;;;;;;5072157;28;20278;-56
2023/08/25 00:08:37;;;;;;;4.30;1.85;;;22.30;61.10;;;;;;5072100;28;20783;-57
2023/08/25 00:11:04;;;;;;;3.67;1.60;;;22.40;61.10;;;;;;5072503;28;20187;-57
2023/08/25 00:13:35;;;;;;;1.80;1.42;;;22.30;61.10;;;;;;5072861;28;20215;-57
2023/08/25 00:16:02;;;;;;;2.33;1.48;;;22.30;61.00;;;;;;5072701;28;20187;-53
2023/08/25 00:18:29;;;;;;;5.03;1.90;;;22.30;61.00;;;;;;5072493;28;20276;-56
2023/08/25 00:20:56;;;;;;;3.95;1.67;;;22.40;61.10;;;;;;5072273;28;20278;-53
2023/08/25 00:23:24;;;;;;;3.70;1.38;;;22.30;61.00;;;;;;5072738;28;20226;-55
2023/08/25 00:25:53;;;;;;;3.80;1.60;;;22.30;61.00;;;;;;5072299;28;20229;-55
2023/08/25 00:28:20;;;;;;;4.18;1.80;;;22.30;60.90;;;;;;5071719;28;20688;-55
2023/08/25 00:30:47;;;;;;;3.53;1.70;;;22.30;60.80;;;;;;5072471;28;20278;-55
2023/08/25 00:33:14;;;;;;;3.65;1.60;;;22.30;60.80;;;;;;5072579;28;20219;-57
2023/08/25 00:35:42;;;;;;;6.35;1.85;;;22.30;60.80;;;;;;5072336;28;20187;-57
2023/08/25 00:38:08;;;;;;;3.92;1.77;;;22.30;60.80;;;;;;5072387;28;20223;-54
2023/08/25 00:40:37;;;;;;;3.65;1.55;;;22.30;60.80;;;;;;5072104;28;20197;-57
2023/08/25 00:43:04;;;;;;;3.88;1.40;;;22.20;60.70;;;;;;5072056;28;20301;-48
2023/08/25 00:45:36;;;;;;;3.10;1.55;;;22.30;61.50;;;;;;5072301;28;20588;-55
2023/08/25 00:48:03;;;;;;;4.50;1.42;;;22.30;60.80;;;;;;5071981;28;20783;-57
2023/08/25 00:50:30;;;;;;;3.55;1.50;;;22.30;60.70;;;;;;5071775;28;20187;-54
2023/08/25 00:52:58;;;;;;;3.00;1.58;;;22.30;60.70;;;;;;5071878;28;20302;-56
2023/08/25 00:55:25;;;;;;;3.17;1.52;;;22.20;60.60;;;;;;5072204;28;20227;-52
2023/08/25 00:57:55;;;;;;;3.97;1.83;;;22.30;60.60;;;;;;5076065;28;20313;-51
2023/08/25 01:00:22;;;;;;;4.05;1.60;;;22.30;60.60;;;;;;5076414;28;20183;-56
2023/08/25 01:02:50;;;;;;;4.90;1.40;;;22.30;60.50;;;;;;5076152;28;20806;-56
2023/08/25 01:05:17;;;;;;;4.07;1.60;;;22.20;60.30;;;;;;5075707;28;20186;-56
2023/08/25 01:07:44;;;;;;;2.50;1.27;;;22.30;60.50;;;;;;5076165;28;20237;-58
2023/08/25 01:10:12;;;;;;;4.30;1.80;;;22.30;60.30;;;;;;5075856;28;20659;-57
2023/08/25 01:12:49;;;;;;;2.85;1.40;;;22.30;60.30;;;;;;5075353;28;20302;-52
2023/08/25 01:15:23;;;;;;;3.78;1.30;;;22.30;60.30;;;;;;5075813;28;20536;-56
2023/08/25 01:17:58;;;;;;;3.03;1.30;;;22.30;60.30;;;;;;5075989;28;20222;-57
2023/08/25 01:20:27;;;;;;;3.38;1.40;;;22.20;60.10;;;;;;5075342;28;20733;-56
2023/08/25 01:23:15;;;;;;;4.55;1.33;;;22.30;60.20;;;;;;5075891;28;20217;-53
2023/08/25 01:25:44;;;;;;;4.43;1.60;;;22.20;60.10;;;;;;5075818;28;20281;-54
2023/08/25 01:28:11;;;;;;;2.50;1.42;;;22.20;60.00;;;;;;5075433;28;20234;-57
2023/08/25 01:30:38;;;;;;;3.70;1.38;;;22.20;59.90;;;;;;5075369;28;20183;-57
2023/08/25 01:33:05;;;;;;;2.88;1.30;;;22.20;59.90;;;;;;5075808;28;20764;-54
2023/08/25 01:35:45;;;;;;;1.88;1.25;;;22.20;59.90;;;;;;5075414;28;20270;-53
2023/08/25 01:38:18;;;;;;;4.53;1.48;;;22.20;59.80;;;;;;5075534;28;20219;-56
2023/08/25 01:40:52;;;;;;;2.95;1.10;;;22.20;59.80;;;;;;5075556;28;20190;-55
2023/08/25 01:43:22;;;;;;;2.35;1.30;;;22.20;59.80;;;;;;5074787;28;20715;-54
2023/08/25 01:45:50;;;;;;;3.45;1.30;;;22.20;59.80;;;;;;5075165;28;20191;-56
2023/08/25 01:48:19;;;;;;;3.25;1.73;;;22.20;60.50;;;;;;5075410;28;20233;-56
2023/08/25 01:50:46;;;;;;;3.38;1.33;;;22.20;59.70;;;;;;5075056;28;20278;-53
2023/08/25 01:53:14;;;;;;;2.35;1.23;;;22.20;59.70;;;;;;5075159;28;20214;-50
2023/08/25 01:55:40;;;;;;;3.97;1.50;;;22.20;59.60;;;;;;5074842;28;20325;-53
2023/08/25 01:58:10;;;;;;;3.83;1.30;;;22.20;59.60;;;;;;5074761;28;20214;-55
2023/08/25 02:00:37;;;;;;;2.33;1.20;;;22.20;59.60;;;;;;5075403;28;20281;-55
2023/08/25 02:03:04;;;;;;;2.50;1.33;;;22.20;59.60;;;;;;5075230;28;20589;-56
2023/08/25 02:05:31;;;;;;;2.60;1.40;;;22.20;60.20;;;;;;5074517;28;20266;-53
2023/08/25 02:07:58;;;;;;;6.05;1.40;;;22.20;59.50;;;;;;5074589;28;20211;-58
2023/08/25 02:10:24;;;;;;;2.63;1.15;;;22.20;59.50;;;;;;5074735;28;20285;-56
2023/08/25 02:12:51;;;;;;;2.25;1.20;;;22.20;59.40;;;;;;5074494;28;20218;-52
2023/08/25 02:15:19;;;;;;;4.57;1.33;;;22.20;59.30;;;;;;5074586;28;20201;-57
2023/08/25 02:17:46;;;;;;;2.50;1.13;;;22.20;59.40;;;;;;5074182;28;20305;-57
2023/08/25 02:20:13;;;;;;;2.53;1.17;;;22.20;59.30;;;;;;5074521;28;20197;-56
2023/08/25 02:22:40;;;;;;;2.55;1.20;;;22.20;59.40;;;;;;5074757;28;20576;-53
2023/08/25 02:25:08;;;;;;;2.88;0.98;;;22.20;59.30;;;;;;5074808;28;20197;-56
2023/08/25 02:27:35;;;;;;;5.38;1.50;;;22.10;59.20;;;;;;5074183;28;20301;-55
2023/08/25 02:30:02;;;;;;;2.60;1.08;;;22.10;59.20;;;;;;5074571;28;20221;-56
2023/08/25 02:32:30;;;;;;;3.20;1.30;;;22.10;59.20;;;;;;5074349;28;20789;-56
2023/08/25 02:34:57;;;;;;;6.70;1.70;;;22.00;59.00;;;;;;5074520;28;20202;-52
2023/08/25 02:37:24;;;;;;;3.63;1.25;;;22.20;59.20;;;;;;5074086;28;20723;-57
2023/08/25 02:39:51;;;;;;;3.78;1.20;;;22.10;59.00;;;;;;5074524;28;20269;-57
2023/08/25 02:42:18;;;;;;;3.08;1.10;;;22.20;59.10;;;;;;5073996;28;20215;-53
2023/08/25 02:44:44;;;;;;;3.28;1.10;;;22.10;59.00;;;;;;5074260;28;20190;-54
2023/08/25 02:47:12;;;;;;;3.63;1.17;;;22.20;59.10;;;;;;5074281;28;20305;-58
2023/08/25 02:49:40;;;;;;;3.25;1.23;;;22.10;59.60;;;;;;5073679;28;20219;-53
2023/08/25 02:52:07;;;;;;;2.13;1.02;;;22.10;59.00;;;;;;5074196;28;20548;-56
2023/08/25 02:54:34;;;;;;;3.03;1.27;;;22.10;58.90;;;;;;5073845;28;20233;-55
2023/08/25 02:57:01;;;;;;;2.60;1.20;;;22.10;58.80;;;;;;5073662;28;20201;-58
2023/08/25 02:59:28;;;;;;;1.73;1.10;;;22.10;58.90;;;;;;5073977;28;20191;-56
2023/08/25 03:01:55;;;;;;;3.05;1.20;;;22.10;58.70;;;;;;5074027;28;20191;-51
2023/08/25 03:04:22;;;;;;;2.90;1.10;;;22.10;58.70;;;;;;5073292;28;20565;-50
2023/08/25 03:06:50;;;;;;;2.70;1.30;;;22.10;58.70;;;;;;5073457;28;20604;-55
2023/08/25 03:09:17;;;;;;;2.20;1.25;;;22.10;58.70;;;;;;5073529;28;20595;-57
2023/08/25 03:11:44;;;;;;;3.55;1.35;;;22.10;58.60;;;;;;5073399;28;20191;-54
2023/08/25 03:14:11;;;;;;;2.72;1.00;;;22.00;58.50;;;;;;5073733;28;20273;-55
2023/08/25 03:16:37;;;;;;;2.88;1.15;;;22.00;58.50;;;;;;5073571;28;20187;-57
2023/08/25 03:19:04;;;;;;;4.97;1.58;;;22.00;58.40;;;;;;5072664;28;20302;-57
2023/08/25 03:21:31;;;;;;;3.33;1.10;;;22.00;58.40;;;;;;5073001;28;20199;-57
2023/08/25 03:23:59;;;;;;;3.35;1.10;;;22.00;58.30;;;;;;5073842;28;20215;-55
2023/08/25 03:26:26;;;;;;;2.55;0.98;;;22.00;58.30;;;;;;5072834;28;20191;-57
2023/08/25 03:28:53;;;;;;;1.52;1.00;;;22.00;58.20;;;;;;5073196;28;20696;-57
2023/08/25 03:31:21;;;;;;;3.47;1.20;;;22.00;58.20;;;;;;5073048;28;20190;-57
2023/08/25 03:33:47;;;;;;;1.48;1.02;;;22.00;58.10;;;;;;5073077;28;20215;-56
2023/08/25 03:36:14;;;;;;;3.85;1.40;;;22.00;58.10;;;;;;5073217;28;20662;-55
2023/08/25 03:38:41;;;;;;;1.40;0.90;;;22.00;58.00;;;;;;5073464;28;20218;-51
2023/08/25 03:41:10;;;;;;;3.13;1.13;;;22.00;58.00;;;;;;5072573;28;20194;-54
2023/08/25 03:43:36;;;;;;;2.15;1.20;;;22.00;58.00;;;;;;5073321;28;20218;-52
2023/08/25 03:46:03;;;;;;;2.65;1.30;;;22.00;58.00;;;;;;5073186;28;20270;-54
2023/08/25 03:48:30;;;;;;;3.13;1.20;;;22.00;57.90;;;;;;5072611;28;20222;-55
2023/08/25 03:50:57;;;;;;;2.95;1.25;;;22.00;57.80;;;;;;5073130;28;20609;-56
2023/08/25 03:53:24;;;;;;;3.58;1.20;;;22.00;57.70;;;;;;5072726;28;20594;-57
2023/08/25 03:55:52;;;;;;;3.45;1.30;;;22.00;57.70;;;;;;5042834;28;20196;-54
2023/08/25 03:58:20;;;;;;;3.45;1.20;;;22.00;57.70;;;;;;5043970;28;20234;-55
2023/08/25 04:00:52;;;;;;;2.78;1.30;;;22.00;57.60;;;;;;5052912;28;20191;-56
2023/08/25 04:03:18;;;;;;;2.47;1.40;;;22.00;57.70;;;;;;5052299;28;20593;-52
2023/08/25 04:05:45;;;;;;;3.22;1.30;;;22.00;57.60;;;;;;5052761;28;20223;-57
2023/08/25 04:08:12;;;;;;;2.22;1.20;;;22.00;57.50;;;;;;5052774;28;20211;-54
2023/08/25 04:10:40;;;;;;;2.50;1.15;;;22.00;57.40;;;;;;5052076;28;20218;-56
2023/08/25 04:13:07;;;;;;;2.20;1.10;;;22.00;57.50;;;;;;5052650;28;20218;-51
2023/08/25 04:15:35;;;;;;;2.55;1.17;;;22.00;57.40;;;;;;5052652;28;20198;-55
2023/08/25 04:18:02;;;;;;;1.88;1.08;;;22.00;57.30;;;;;;5051831;28;20780;-54
2023/08/25 04:20:29;;;;;;;3.88;1.20;;;21.90;57.20;;;;;;5052243;28;20190;-50
2023/08/25 04:22:56;;;;;;;2.35;1.08;;;21.90;57.20;;;;;;5052545;28;20218;-56
2023/08/25 04:25:23;;;;;;;1.55;1.00;;;21.90;57.20;;;;;;5051912;28;20667;-57
2023/08/25 04:27:50;;;;;;;3.03;1.00;;;21.90;57.20;;;;;;5052167;28;20306;-53
2023/08/25 04:30:22;;;;;;;2.72;1.10;;;21.90;57.10;;;;;;5052084;28;20219;-57
2023/08/25 04:32:50;;;;;;;2.75;1.10;;;21.90;57.10;;;;;;5052049;28;20216;-51
2023/08/25 04:35:17;;;;;;;2.47;0.95;;;21.90;57.10;;;;;;5052368;28;20190;-53
2023/08/25 04:37:47;;;;;;;2.10;0.93;;;21.90;57.20;;;;;;5052244;28;20243;-49
2023/08/25 04:40:14;;;;;;;2.15;0.90;;;21.90;57.10;;;;;;5052004;28;20194;-57
2023/08/25 04:42:41;;;;;;;1.95;1.13;;;21.90;57.10;;;;;;5052211;28;20660;-57
2023/08/25 04:45:09;;;;;;;2.85;1.20;;;21.90;57.10;;;;;;5051998;28;20282;-57
2023/08/25 04:47:36;;;;;;;2.05;1.15;;;21.90;57.10;;;;;;5051660;28;20219;-52
2023/08/25 04:50:05;;;;;;;3.03;1.40;;;21.90;57.10;;;;;;5051870;28;20310;-54
2023/08/25 04:52:33;;;;;;;3.38;1.38;;;21.90;57.10;;;;;;5051758;28;20506;-55
2023/08/25 04:55:00;;;;;;;3.15;1.38;;;21.90;57.10;;;;;;5064455;28;20229;-56
2023/08/25 04:57:27;;;;;;;1.83;1.17;;;21.90;56.90;;;;;;5072219;28;20238;-57
2023/08/25 04:59:54;;;;;;;1.52;1.00;;;21.90;56.80;;;;;;5071535;28;20733;-57
2023/08/25 05:02:21;;;;;;;1.45;0.90;;;21.90;56.80;;;;;;5071633;28;20218;-56
2023/08/25 05:04:48;;;;;;;3.05;1.30;;;21.90;56.80;;;;;;5072134;28;20277;-54
2023/08/25 05:07:16;;;;;;;2.95;1.05;;;21.90;56.80;;;;;;5071931;28;20218;-54
2023/08/25 05:09:43;;;;;;;6.28;1.35;;;21.90;56.70;;;;;;5071641;28;20218;-57
2023/08/25 05:12:10;;;;;;;3.75;1.20;;;21.90;56.80;;;;;;5072068;28;20632;-57
2023/08/25 05:14:37;;;;;;;3.60;1.13;;;21.90;56.70;;;;;;5072096;28;20187;-52
2023/08/25 05:17:05;;;;;;;3.35;1.25;;;21.90;56.60;;;;;;5071545;28;20348;-57
2023/08/25 05:19:31;;;;;;;4.40;1.10;;;21.90;56.60;;;;;;5071902;28;20662;-52
2023/08/25 05:21:58;;;;;;;8.38;1.40;;;21.90;56.50;;;;;;5071807;28;20187;-56
2023/08/25 05:24:28;;;;;;;4.75;0.85;;;21.90;56.50;;;;;;5071257;28;20191;-56
2023/08/25 05:26:55;;;;;;;4.47;1.10;;;21.80;56.40;;;;;;5071723;28;20217;-55
2023/08/25 05:29:23;;;;;;;2.17;1.00;;;21.80;56.30;;;;;;5071378;28;20783;-55
2023/08/25 05:31:50;;;;;;;7.95;1.55;;;21.80;56.30;;;;;;5071239;28;20273;-53
2023/08/25 05:34:17;;;;;;;2.30;1.00;;;21.80;56.40;;;;;;5071883;28;20297;-56
2023/08/25 05:36:44;;;;;;;6.55;1.30;;;21.80;56.20;;;;;;5071733;28;20279;-55
2023/08/25 05:39:12;;;;;;;5.22;1.20;;;21.80;56.20;;;;;;5071073;28;20301;-53
2023/08/25 05:41:40;;;;;;;3.45;1.92;;;21.80;56.20;;;;;;5072392;28;20273;-55
2023/08/25 05:44:07;;;;;;;3.60;1.00;;;21.80;56.20;;;;;;5075031;28;20584;-54
2023/08/25 05:46:34;;;;;;;4.32;1.20;;;21.80;56.10;;;;;;5075041;28;20282;-54
2023/08/25 05:49:01;;;;;;;3.28;1.08;;;21.80;56.10;;;;;;5075413;28;20246;-57
2023/08/25 05:51:28;;;;;;;0.85;0.80;;;21.80;56.00;;;;;;5075234;28;20303;-52
2023/08/25 05:53:55;;;;;;;2.95;1.10;;;21.80;56.00;;;;;;5074406;28;20276;-55
2023/08/25 05:56:22;;;;;;;1.73;1.00;;;21.80;56.00;;;;;;5075179;28;20270;-57
2023/08/25 05:58:50;;;;;;;2.95;0.65;;;21.80;56.00;;;;;;5075265;28;20214;-51
2023/08/25 06:01:18;;;;;;;3.63;1.15;;;21.80;55.90;;;;;;5074812;28;20201;-55
2023/08/25 06:03:45;;;;;;;3.88;1.30;;;21.80;55.90;;;;;;5074293;28;20704;-50
2023/08/25 06:06:12;;;;;;;2.70;1.00;;;21.80;55.90;;;;;;5074743;28;20187;-52
2023/08/25 06:08:38;;;;;;;2.90;1.05;;;21.80;55.80;;;;;;5074846;28;20688;-54
2023/08/25 06:11:07;;;;;;;1.80;0.98;;;21.80;55.80;;;;;;5074935;28;20225;-52
2023/08/25 06:13:34;;;;;;;5.88;1.20;;;21.80;55.80;;;;;;5075095;28;20215;-53
2023/08/25 06:16:02;;;;;;;3.17;1.17;;;21.80;55.80;;;;;;5074234;28;20214;-54
2023/08/25 06:18:29;;;;;;;3.63;1.00;;;21.80;55.80;;;;;;5075083;28;20242;-56
2023/08/25 06:20:56;;;;;;;4.18;1.30;;;21.80;55.80;;;;;;5074819;28;20197;-55
2023/08/25 06:23:23;;;;;;;4.72;1.20;;;21.80;55.70;;;;;;5074260;28;20643;-56
2023/08/25 06:25:50;;;;;;;2.15;0.77;;;21.70;55.60;;;;;;5074614;28;20285;-50
2023/08/25 06:28:17;;;;;;;1.77;0.98;;;21.80;55.70;;;;;;5074493;28;20221;-56
2023/08/25 06:30:44;;;;;;;2.70;0.90;;;21.80;55.70;;;;;;5074235;28;20241;-58
2023/08/25 06:33:12;;;;;;;3.38;1.00;;;21.80;55.60;;;;;;5074642;28;20222;-55
2023/08/25 06:35:39;;;;;;;4.80;0.98;;;21.70;55.50;;;;;;5074247;28;20191;-53
2023/08/25 06:38:06;;;;;;;4.10;1.00;;;21.80;55.60;;;;;;5073905;28;20214;-56
2023/08/25 06:40:34;;;;;;;3.97;0.98;;;21.80;55.50;;;;;;5074476;28;20410;-55
2023/08/25 06:43:02;;;;;;;2.28;0.70;;;21.80;55.50;;;;;;5074173;28;20589;-58
2023/08/25 06:45:30;;;;;;;2.13;1.00;;;21.80;55.50;;;;;;5073780;28;20668;-53
2023/08/25 06:47:57;;;;;;;4.03;1.05;;;21.70;55.50;;;;;;5074446;28;20222;-55
2023/08/25 06:50:26;;;;;;;2.83;0.90;;;21.80;55.50;;;;;;5073917;28;20771;-56
2023/08/25 06:52:53;;;;;;;5.53;1.20;;;21.70;55.30;;;;;;5073139;28;20301;-44
2023/08/25 06:55:20;;;;;;;3.85;1.05;;;21.80;55.40;;;;;;5073526;28;20321;-55
2023/08/25 06:57:47;;;;;;;3.40;0.95;;;21.70;55.90;;;;;;5074320;28;20215;-52
2023/08/25 07:00:15;;;;;;;1.67;0.82;;;21.70;55.20;;;;;;5073450;28;20637;-55
2023/08/25 07:02:43;;;;;;;6.85;1.13;;;21.80;55.30;;;;;;5074068;28;20214;-55
2023/08/25 07:05:10;;;;;;;1.98;1.00;;;21.70;55.20;;;;;;5074044;28;20186;-56
2023/08/25 07:07:39;;;;;;;5.05;1.15;;;21.70;55.20;;;;;;5073257;28;20276;-57
2023/08/25 07:10:06;;;;;;;1.17;0.80;;;21.70;55.10;;;;;;5073846;28;20215;-52
2023/08/25 07:12:37;;;;;;;5.55;1.00;;;21.80;55.20;;;;;;5028877;28;20385;-50
2023/08/25 07:15:08;;;;;;;2.10;0.82;;;21.70;55.00;;;;;;5055859;28;20253;-58
2023/08/25 07:17:37;;;;;;;2.28;1.00;;;21.80;55.20;;;;;;5032022;28;20272;-52
2023/08/25 07:20:09;;;;;;;2.83;0.82;;;21.70;55.10;;;;;;5063256;28;20211;-56
2023/08/25 07:22:40;;;;;;;3.92;1.40;;;21.80;55.20;;;;;;5047795;28;20231;-55
2023/08/25 07:25:13;;;;;;;4.65;1.10;;;21.70;55.00;;;;;;5060627;28;20615;-55
2023/08/25 07:27:40;;;;;;;2.80;0.95;;;21.80;55.00;;;;;;5062550;28;20227;-53
2023/08/25 07:30:08;;;;;;;4.20;1.02;;;21.70;55.00;;;;;;5067359;28;20301;-56
2023/08/25 07:32:41;;;;;;;2.47;0.90;;;21.80;55.00;;;;;;5063271;28;20395;-56
2023/08/25 07:35:11;;;;;;;2.95;1.00;;;21.70;54.90;;;;;;5061296;28;20680;-55
2023/08/25 07:37:41;;;;;;;4.35;0.90;;;21.80;55.00;;;;;;5013030;28;20227;-55
2023/08/25 07:40:17;;;;;;;6.05;0.98;;;21.80;54.90;;;;;;5044211;28;20249;-55
2023/08/25 07:42:45;;;;;;;2.22;1.00;;;21.90;55.00;;;;;;5032412;28;20649;-56
2023/08/25 07:45:15;;;;;;;2.75;1.02;;;21.90;54.90;;;;;;5058983;28;20199;-56
2023/08/25 07:47:47;;;;;;;2.45;1.15;;;21.90;54.70;;;;;;5032081;28;20230;-53
2023/08/25 07:50:16;;;;;;;3.83;1.40;;;21.90;54.50;;;;;;5061946;28;20265;-56
2023/08/25 07:52:43;;;;;;;2.63;0.95;;;21.90;54.40;;;;;;5062415;28;20443;-56
2023/08/25 07:55:13;;;;;;;2.15;0.70;;;21.90;54.30;;;;;;5020990;28;20222;-56
2023/08/25 07:57:40;;;;;;;0.90;0.80;;;21.90;54.30;;;;;;5064125;28;20313;-53
2023/08/25 08:00:12;;;;;;;2.25;0.80;;;22.00;54.20;;;;;;5062313;28;20286;-57
2023/08/25 08:02:39;;;;;;;2.38;0.90;;;22.00;54.10;;;;;;5066535;28;20755;-57
2023/08/25 08:05:07;;;;;;;3.53;1.00;;;22.00;54.10;;;;;;5060445;28;20278;-57
2023/08/25 08:07:34;;;;;;;3.53;0.80;;;22.00;54.10;;;;;;5065422;28;20214;-58
2023/08/25 08:10:01;;;;;;;1.50;0.77;;;22.00;54.10;;;;;;5061759;28;20233;-56
2023/08/25 08:12:30;;;;;;;2.92;0.90;;;22.00;54.10;;;;;;5060851;28;20218;-57
2023/08/25 08:14:57;;;;;;;1.35;0.77;;;22.10;54.20;;;;;;5064199;28;20562;-56
2023/08/25 08:17:24;;;;;;;2.45;1.00;;;22.10;54.90;;;;;;5073532;28;20204;-56
2023/08/25 08:19:51;;;;;;;1.98;0.68;;;22.10;55.00;;;;;;5060934;28;20199;-56
2023/08/25 08:22:19;;;;;;;1.73;0.80;;;22.10;54.30;;;;;;5062769;28;20195;-56
2023/08/25 08:24:48;;;;;;;2.42;0.90;;;22.10;54.30;;;;;;5064565;28;20255;-56
2023/08/25 08:27:16;;;;;;;1.13;0.82;;;22.10;54.30;;;;;;5067071;28;20224;-57
2023/08/25 08:29:46;;;;;;;1.55;0.80;;;22.10;54.30;;;;;;5059032;28;20195;-55
2023/08/25 08:32:14;;;;;;;4.68;0.85;;;22.10;54.40;;;;;;5066653;28;20219;-56
2023/08/25 08:34:41;;;;;;;2.65;0.70;;;22.20;54.40;;;;;;5067614;28;20896;-53
2023/08/25 08:37:08;;;;;;;2.13;1.02;;;22.10;54.30;;;;;;5071514;28;20182;-57
2023/08/25 08:39:37;;;;;;;2.17;1.08;;;22.10;54.30;;;;;;5071671;28;20306;-54
2023/08/25 08:42:04;;;;;;;2.40;0.90;;;22.10;54.20;;;;;;5071746;28;20190;-56
2023/08/25 08:44:35;;;;;;;3.22;0.88;;;22.20;54.20;;;;;;5070827;28;20229;-56
2023/08/25 08:47:04;;;;;;;3.65;1.10;;;22.10;53.60;;;;;;5071687;28;20213;-56
2023/08/25 08:49:33;;;;;;;1.35;1.00;;;22.00;53.30;;;;;;5071503;28;20241;-55
2023/08/25 08:52:03;;;;;;;9.90;2.35;;;21.70;52.30;;;;;;5071450;28;20301;-57
2023/08/25 08:54:31;;;;;;;10.65;1.50;;;21.50;54.20;;;;;;5071868;28;20220;-55
2023/08/25 08:56:59;;;;;;;21.55;1.60;;;21.40;54.00;;;;;;5071732;28;20190;-54
2023/08/25 08:59:26;;;;;;;5.35;1.05;;;21.20;52.80;;;;;;5069626;28;20223;-55
2023/08/25 09:01:55;;;;;;;7.88;1.00;;;21.20;54.30;;;;;;5071582;28;20266;-53
2023/08/25 09:04:24;;;;;;;7.55;1.10;;;21.30;54.90;;;;;;5070267;28;20305;-57
2023/08/25 09:06:52;;;;;;;3.38;1.00;;;21.40;55.10;;;;;;5071266;28;20273;-57
2023/08/25 09:09:20;;;;;;;3.97;1.00;;;21.50;55.10;;;;;;5071706;28;20306;-55
2023/08/25 09:11:47;;;;;;;3.55;1.25;;;21.50;54.90;;;;;;5071360;28;20218;-55
2023/08/25 09:14:23;;;;;;;4.15;1.20;;;21.70;55.00;;;;;;5070542;28;20223;-57
2023/08/25 09:16:51;;;;;;;4.68;1.13;;;21.70;54.90;;;;;;5072183;28;20191;-56
2023/08/25 09:19:18;;;;;;;6.93;1.50;;;21.80;54.80;;;;;;5059795;28;20222;-57
2023/08/25 09:21:47;;;;;;;4.63;1.17;;;21.80;54.70;;;;;;5058268;28;20334;-53
2023/08/25 09:24:18;;;;;;;2.05;1.08;;;21.90;54.70;;;;;;5075296;28;20259;-55
2023/08/25 09:26:46;;;;;;;5.47;1.58;;;21.90;54.60;;;;;;5075161;28;20229;-53
2023/08/25 09:29:13;;;;;;;6.78;1.13;;;22.00;54.60;;;;;;5089825;28;20312;-56
2023/08/25 09:31:40;;;;;;;3.38;1.20;;;22.00;54.50;;;;;;5095223;28;20228;-56
2023/08/25 09:34:08;;;;;;;3.25;1.00;;;22.00;54.40;;;;;;5083681;28;20214;-56
2023/08/25 09:36:35;;;;;;;4.50;1.35;;;22.00;54.40;;;;;;5074601;28;20274;-56
2023/08/25 09:39:03;;;;;;;7.25;1.10;;;22.00;54.50;;;;;;5075029;28;20301;-56
2023/08/25 09:41:30;;;;;;;3.72;1.10;;;22.00;54.50;;;;;;5073073;28;20286;-56
2023/08/25 09:43:58;;;;;;;2.65;1.00;;;22.10;54.50;;;;;;5058126;28;20322;-56
2023/08/25 09:46:29;;;;;;;6.63;1.00;;;22.00;54.40;;;;;;5055354;28;20600;-56
2023/08/25 09:49:02;;;;;;;1.92;0.90;;;22.00;54.40;;;;;;5059264;28;20663;-57
2023/08/25 09:51:35;;;;;;;4.28;1.00;;;22.10;54.50;;;;;;5071950;28;20219;-56
2023/08/25 09:54:07;;;;;;;3.95;1.10;;;22.10;54.50;;;;;;5081631;28;20226;-57
2023/08/25 09:56:35;;;;;;;2.10;0.85;;;22.20;54.60;;;;;;5084721;28;20236;-56
2023/08/25 09:59:03;;;;;;;2.17;0.93;;;22.10;54.50;;;;;;5081146;28;20246;-55
2023/08/25 10:01:30;;;;;;;3.40;1.20;;;22.10;54.60;;;;;;5054069;28;20195;-57
2023/08/25 10:03:59;;;;;;;2.58;1.10;;;22.20;54.70;;;;;;5054410;28;20657;-57
2023/08/25 10:06:27;;;;;;;2.15;1.02;;;22.20;54.60;;;;;;5053979;28;20187;-57
2023/08/25 10:08:55;;;;;;;5.18;1.27;;;22.20;54.60;;;;;;5053910;28;20269;-56
2023/08/25 10:11:28;;;;;;;3.10;1.00;;;22.20;54.50;;;;;;5054724;28;20306;-56
2023/08/25 10:13:56;;;;;;;1.33;0.70;;;22.10;54.40;;;;;;5074025;28;20624;-57
2023/08/25 10:16:26;;;;;;;2.58;1.20;;;22.10;54.30;;;;;;5072833;28;20649;-56
2023/08/25 10:18:56;;;;;;;1.90;1.33;;;22.20;54.40;;;;;;5054077;28;20223;-55
2023/08/25 10:21:24;;;;;;;5.30;1.40;;;22.20;54.40;;;;;;5018048;28;20290;-57
2023/08/25 10:23:54;;;;;;;3.60;1.10;;;22.20;54.40;;;;;;5053995;28;20302;-56
2023/08/25 10:26:23;;;;;;;2.13;1.00;;;22.30;54.40;;;;;;5054161;28;20188;-57
2023/08/25 10:28:51;;;;;;;3.13;1.02;;;22.20;54.40;;;;;;5056902;28;20301;-56
2023/08/25 10:31:19;;;;;;;4.00;1.05;;;22.20;54.30;;;;;;5074074;28;20298;-55
2023/08/25 10:33:49;;;;;;;2.60;1.20;;;22.30;54.40;;;;;;5074221;28;20218;-55
2023/08/25 10:36:18;;;;;;;3.78;1.17;;;22.30;54.30;;;;;;5073668;28;20190;-54
2023/08/25 10:39:08;;;;;;;2.90;1.20;;;22.30;54.20;;;;;;5073844;28;20633;-52
2023/08/25 10:41:42;;;;;;;2.45;0.95;;;22.30;54.00;;;;;;5074079;28;20293;-56
2023/08/25 10:44:10;;;;;;;4.20;0.95;;;22.30;54.00;;;;;;5074250;28;20211;-53
2023/08/25 10:46:39;;;;;;;2.25;1.00;;;22.30;53.90;;;;;;5073741;28;20191;-54
2023/08/25 10:49:11;;;;;;;1.95;0.80;;;22.30;53.90;;;;;;5073905;28;20230;-56
2023/08/25 10:51:38;;;;;;;1.90;0.98;;;22.30;53.90;;;;;;5073706;28;20223;-56
2023/08/25 10:54:05;;;;;;;3.30;1.10;;;22.30;53.80;;;;;;5073755;28;20306;-57
2023/08/25 10:56:33;;;;;;;3.50;1.20;;;22.30;53.80;;;;;;5071047;28;20229;-55
2023/08/25 10:59:07;;;;;;;3.03;1.00;;;22.40;53.80;;;;;;5072625;28;20720;-56
2023/08/25 11:01:57;;;;;;;3.80;1.40;;;22.40;53.80;;;;;;5073608;28;20190;-56
2023/08/25 11:04:25;;;;;;;3.00;0.93;;;22.30;53.60;;;;;;5053162;28;20224;-57
2023/08/25 11:06:53;;;;;;;3.35;0.85;;;22.30;53.60;;;;;;5053143;28;20199;-56
2023/08/25 11:09:36;;;;;;;4.03;1.00;;;22.30;53.60;;;;;;5059454;28;20760;-56
2023/08/25 11:12:06;;;;;;;4.82;1.33;;;22.40;54.20;;;;;;5073020;28;20224;-56
2023/08/25 11:14:35;;;;;;;3.70;1.10;;;22.40;53.50;;;;;;5072556;28;20219;-56
2023/08/25 11:17:04;;;;;;;2.42;0.90;;;22.40;53.50;;;;;;5072598;28;20190;-56
2023/08/25 11:19:32;;;;;;;3.70;1.20;;;22.40;53.50;;;;;;5072472;28;20569;-56
2023/08/25 11:22:00;;;;;;;4.22;1.23;;;22.40;53.40;;;;;;5073210;28;20187;-56
2023/08/25 11:24:27;;;;;;;1.10;0.70;;;22.40;53.40;;;;;;5070998;28;20614;-56
2023/08/25 11:26:54;;;;;;;2.78;0.93;;;22.40;53.30;;;;;;5072517;28;20695;-53
2023/08/25 11:29:21;;;;;;;2.58;0.95;;;22.40;53.30;;;;;;5072787;28;20309;-55
2023/08/25 11:31:49;;;;;;;1.75;0.85;;;22.40;53.30;;;;;;5070971;28;20601;-56
2023/08/25 11:34:16;;;;;;;2.67;1.20;;;22.40;53.20;;;;;;5072379;28;20679;-56
2023/08/25 11:36:43;;;;;;;2.35;0.82;;;22.40;53.20;;;;;;5072720;28;20213;-56
2023/08/25 11:39:18;;;;;;;3.78;1.23;;;22.40;53.90;;;;;;5072171;28;20221;-55
2023/08/25 11:41:45;;;;;;;3.42;0.85;;;22.40;53.10;;;;;;5071209;28;20202;-55
2023/08/25 11:44:12;;;;;;;2.20;0.82;;;22.40;53.20;;;;;;5052525;28;20731;-55
2023/08/25 11:46:39;;;;;;;1.35;0.98;;;22.40;53.10;;;;;;5052705;28;20270;-57
2023/08/25 11:49:08;;;;;;;1.83;1.00;;;22.40;53.10;;;;;;5052594;28;20247;-56
2023/08/25 11:51:36;;;;;;;4.00;1.10;;;22.40;53.00;;;;;;5050642;28;20211;-52
2023/08/25 11:54:04;;;;;;;2.90;0.80;;;22.40;53.00;;;;;;5057533;28;20219;-56
2023/08/25 11:56:31;;;;;;;1.13;0.70;;;22.40;52.90;;;;;;5055969;28;20227;-56
2023/08/25 11:58:57;;;;;;;3.13;1.02;;;22.40;52.90;;;;;;5070993;28;20228;-56
2023/08/25 12:01:35;;;;;;;4.63;1.00;;;22.40;52.90;;;;;;5061797;28;20260;-49
2023/08/25 12:04:22;;;;;;;1.63;0.70;;;22.50;53.20;;;;;;5071753;28;20215;-55
2023/08/25 12:06:53;;;;;;;2.47;0.90;;;22.40;53.20;;;;;;5055857;28;20223;-55
2023/08/25 12:09:25;;;;;;;1.65;0.80;;;22.40;53.30;;;;;;5059882;28;20211;-55
2023/08/25 12:11:56;;;;;;;1.48;0.80;;;22.50;53.40;;;;;;5065454;28;20317;-56
2023/08/25 12:14:28;;;;;;;1.98;0.90;;;22.40;53.30;;;;;;5032470;28;20635;-54
2023/08/25 12:16:57;;;;;;;2.50;1.00;;;22.50;53.40;;;;;;5058730;28;20207;-51
2023/08/25 12:19:30;;;;;;;2.28;0.82;;;22.40;53.30;;;;;;5061849;28;20309;-53
2023/08/25 12:22:06;;;;;;;5.90;0.90;;;22.50;53.40;;;;;;5045080;28;20202;-52
2023/08/25 12:24:32;;;;;;;2.85;1.00;;;22.50;53.40;;;;;;5065109;28;20245;-54
2023/08/25 12:26:59;;;;;;;2.33;0.80;;;22.40;53.20;;;;;;5065427;28;20282;-55
2023/08/25 12:29:27;;;;;;;4.30;1.15;;;22.50;53.30;;;;;;5057865;28;20223;-51
2023/08/25 12:31:54;;;;;;;10.50;1.30;;;22.50;53.50;;;;;;5057052;28;20535;-51
2023/08/25 12:34:21;;;;;;;5.38;0.80;;;22.50;53.40;;;;;;5063993;28;20214;-57
2023/08/25 12:36:49;;;;;;;3.25;1.20;;;22.50;53.60;;;;;;5062211;28;20197;-57
2023/08/25 12:39:18;;;;;;;5.75;1.42;;;22.50;53.80;;;;;;5065930;28;20262;-56
2023/08/25 12:41:45;;;;;;;2.72;1.00;;;22.50;54.00;;;;;;5064827;28;20206;-55
2023/08/25 12:44:12;;;;;;;1.45;0.85;;;22.50;53.90;;;;;;5068219;28;20221;-57
2023/08/25 12:46:40;;;;;;;8.55;1.13;;;22.50;54.00;;;;;;5065838;28;20565;-48
2023/08/25 12:49:07;;;;;;;3.92;1.17;;;22.50;54.00;;;;;;5065254;28;20219;-56
2023/08/25 12:51:34;;;;;;;6.68;1.30;;;22.60;54.00;;;;;;5065000;28;20291;-57